sensor_id;sensor_type;location;lat;lon;timestamp;P1;durP1;ratioP1;P2;durP2;ratioP2
73152;SDS011;61363;50.882;5.988;2024-01-07T00:00:15;7.10;;;4.23;;
73152;SDS011;61363;50.882;5.988;2024-01-07T00:02:41;7.97;;;4.43;;
73152;SDS011;61363;50.882;5.988;2024-01-07T00:05:06;7.27;;;4.43;;
73152;SDS011;61363;50.882;5.988;2024-01-07T00:07:32;8.18;;;4.78;;
73152;SDS011;61363;50.882;5.988;2024-01-07T00:09:57;8.00;;;4.47;;
73152;SDS011;61363;50.882;5.988;2024-01-07T00:12:23;7.97;;;4.87;;
73152;SDS011;61363;50.882;5.988;2024-01-07T00:14:49;7.35;;;4.32;;
73152;SDS011;61363;50.882;5.988;2024-01-07T00:17:15;8.10;;;4.30;;
73152;SDS011;61363;50.882;5.988;2024-01-07T00:19:40;7.23;;;4.20;;
73152;SDS011;61363;50.882;5.988;2024-01-07T00:22:06;7.45;;;4.53;;
73152;SDS011;61363;50.882;5.988;2024-01-07T00:24:32;7.40;;;4.70;;
73152;SDS011;61363;50.882;5.988;2024-01-07T00:26:57;8.00;;;4.53;;
73152;SDS011;61363;50.882;5.988;2024-01-07T00:29:23;7.30;;;4.40;;
73152;SDS011;61363;50.882;5.988;2024-01-07T00:31:48;7.30;;;4.30;;
73152;SDS011;61363;50.882;5.988;2024-01-07T00:34:13;7.80;;;4.40;;
73152;SDS011;61363;50.882;5.988;2024-01-07T00:36:39;7.17;;;4.37;;
73152;SDS011;61363;50.882;5.988;2024-01-07T00:39:04;7.00;;;4.33;;
73152;SDS011;61363;50.882;5.988;2024-01-07T00:41:30;8.10;;;4.88;;
73152;SDS011;61363;50.882;5.988;2024-01-07T00:43:55;7.93;;;4.67;;
73152;SDS011;61363;50.882;5.988;2024-01-07T00:46:21;7.90;;;4.50;;
73152;SDS011;61363;50.882;5.988;2024-01-07T00:48:46;7.30;;;4.47;;
73152;SDS011;61363;50.882;5.988;2024-01-07T00:51:12;8.00;;;4.57;;
73152;SDS011;61363;50.882;5.988;2024-01-07T00:53:37;7.63;;;4.60;;
73152;SDS011;61363;50.882;5.988;2024-01-07T00:56:02;6.77;;;4.20;;
73152;SDS011;61363;50.882;5.988;2024-01-07T00:58:28;8.52;;;4.78;;
73152;SDS011;61363;50.882;5.988;2024-01-07T01:00:54;8.27;;;4.87;;
73152;SDS011;61363;50.882;5.988;2024-01-07T01:03:20;8.00;;;4.72;;
73152;SDS011;61363;50.882;5.988;2024-01-07T01:05:45;7.70;;;4.60;;
73152;SDS011;61363;50.882;5.988;2024-01-07T01:08:11;6.93;;;4.30;;
73152;SDS011;61363;50.882;5.988;2024-01-07T01:10:36;7.27;;;4.47;;
73152;SDS011;61363;50.882;5.988;2024-01-07T01:13:02;8.10;;;4.70;;
73152;SDS011;61363;50.882;5.988;2024-01-07T01:15:27;8.27;;;4.50;;
73152;SDS011;61363;50.882;5.988;2024-01-07T01:17:53;7.67;;;4.40;;
73152;SDS011;61363;50.882;5.988;2024-01-07T01:20:18;7.07;;;4.33;;
73152;SDS011;61363;50.882;5.988;2024-01-07T01:22:43;8.10;;;4.80;;
73152;SDS011;61363;50.882;5.988;2024-01-07T01:25:09;7.60;;;4.57;;
73152;SDS011;61363;50.882;5.988;2024-01-07T01:27:35;7.63;;;4.32;;
73152;SDS011;61363;50.882;5.988;2024-01-07T01:30:00;7.80;;;4.20;;
73152;SDS011;61363;50.882;5.988;2024-01-07T01:32:26;7.97;;;4.53;;
73152;SDS011;61363;50.882;5.988;2024-01-07T01:34:51;7.80;;;4.60;;
73152;SDS011;61363;50.882;5.988;2024-01-07T01:37:16;7.63;;;4.40;;
73152;SDS011;61363;50.882;5.988;2024-01-07T01:39:42;7.03;;;4.30;;
73152;SDS011;61363;50.882;5.988;2024-01-07T01:42:07;8.37;;;4.53;;
73152;SDS011;61363;50.882;5.988;2024-01-07T01:44:33;8.38;;;5.10;;
73152;SDS011;61363;50.882;5.988;2024-01-07T01:46:58;7.97;;;4.50;;
73152;SDS011;61363;50.882;5.988;2024-01-07T01:49:26;8.23;;;4.55;;
73152;SDS011;61363;50.882;5.988;2024-01-07T01:51:52;8.10;;;4.53;;
73152;SDS011;61363;50.882;5.988;2024-01-07T01:54:18;8.87;;;4.83;;
73152;SDS011;61363;50.882;5.988;2024-01-07T01:56:44;9.13;;;4.80;;
73152;SDS011;61363;50.882;5.988;2024-01-07T01:59:09;8.37;;;4.60;;
73152;SDS011;61363;50.882;5.988;2024-01-07T02:01:36;7.93;;;4.50;;
73152;SDS011;61363;50.882;5.988;2024-01-07T02:04:01;8.30;;;5.00;;
73152;SDS011;61363;50.882;5.988;2024-01-07T02:06:27;8.68;;;4.97;;
73152;SDS011;61363;50.882;5.988;2024-01-07T02:08:52;7.70;;;4.57;;
73152;SDS011;61363;50.882;5.988;2024-01-07T02:11:18;9.00;;;5.00;;
73152;SDS011;61363;50.882;5.988;2024-01-07T02:13:44;8.48;;;4.90;;
73152;SDS011;61363;50.882;5.988;2024-01-07T02:16:10;8.00;;;4.47;;
73152;SDS011;61363;50.882;5.988;2024-01-07T02:18:36;8.40;;;4.60;;
73152;SDS011;61363;50.882;5.988;2024-01-07T02:21:02;8.32;;;5.13;;
73152;SDS011;61363;50.882;5.988;2024-01-07T02:23:28;8.23;;;4.80;;
73152;SDS011;61363;50.882;5.988;2024-01-07T02:25:53;7.80;;;4.60;;
73152;SDS011;61363;50.882;5.988;2024-01-07T02:28:18;8.20;;;4.73;;
73152;SDS011;61363;50.882;5.988;2024-01-07T02:30:44;9.97;;;5.33;;
73152;SDS011;61363;50.882;5.988;2024-01-07T02:33:09;8.77;;;5.23;;
73152;SDS011;61363;50.882;5.988;2024-01-07T02:35:34;9.60;;;5.10;;
73152;SDS011;61363;50.882;5.988;2024-01-07T02:38:00;9.07;;;5.07;;
73152;SDS011;61363;50.882;5.988;2024-01-07T02:40:25;8.67;;;4.97;;
73152;SDS011;61363;50.882;5.988;2024-01-07T02:42:51;9.05;;;4.95;;
73152;SDS011;61363;50.882;5.988;2024-01-07T02:45:16;8.70;;;5.17;;
73152;SDS011;61363;50.882;5.988;2024-01-07T02:47:41;8.80;;;5.27;;
73152;SDS011;61363;50.882;5.988;2024-01-07T02:50:07;8.73;;;4.97;;
73152;SDS011;61363;50.882;5.988;2024-01-07T02:52:32;8.13;;;4.55;;
73152;SDS011;61363;50.882;5.988;2024-01-07T02:54:58;9.30;;;5.17;;
73152;SDS011;61363;50.882;5.988;2024-01-07T02:57:24;9.90;;;5.15;;
73152;SDS011;61363;50.882;5.988;2024-01-07T02:59:49;8.93;;;4.97;;
73152;SDS011;61363;50.882;5.988;2024-01-07T03:02:14;8.50;;;5.10;;
73152;SDS011;61363;50.882;5.988;2024-01-07T03:04:40;8.23;;;4.83;;
73152;SDS011;61363;50.882;5.988;2024-01-07T03:07:05;8.17;;;5.00;;
73152;SDS011;61363;50.882;5.988;2024-01-07T03:09:31;8.38;;;4.90;;
73152;SDS011;61363;50.882;5.988;2024-01-07T03:11:56;8.33;;;4.80;;
73152;SDS011;61363;50.882;5.988;2024-01-07T03:14:21;8.47;;;4.80;;
73152;SDS011;61363;50.882;5.988;2024-01-07T03:16:48;8.95;;;5.07;;
73152;SDS011;61363;50.882;5.988;2024-01-07T03:19:13;8.20;;;5.00;;
73152;SDS011;61363;50.882;5.988;2024-01-07T03:21:39;8.07;;;5.03;;
73152;SDS011;61363;50.882;5.988;2024-01-07T03:24:04;9.10;;;5.10;;
73152;SDS011;61363;50.882;5.988;2024-01-07T03:26:30;9.32;;;5.43;;
73152;SDS011;61363;50.882;5.988;2024-01-07T03:28:58;7.57;;;4.55;;
73152;SDS011;61363;50.882;5.988;2024-01-07T03:31:27;7.97;;;4.67;;
73152;SDS011;61363;50.882;5.988;2024-01-07T03:33:53;8.35;;;4.50;;
73152;SDS011;61363;50.882;5.988;2024-01-07T03:36:18;8.57;;;4.50;;
73152;SDS011;61363;50.882;5.988;2024-01-07T03:38:44;8.37;;;4.83;;
73152;SDS011;61363;50.882;5.988;2024-01-07T03:41:15;8.10;;;4.57;;
73152;SDS011;61363;50.882;5.988;2024-01-07T03:43:43;8.13;;;4.73;;
73152;SDS011;61363;50.882;5.988;2024-01-07T03:46:09;7.80;;;4.47;;
73152;SDS011;61363;50.882;5.988;2024-01-07T03:48:35;7.67;;;4.27;;
73152;SDS011;61363;50.882;5.988;2024-01-07T03:51:00;7.90;;;4.40;;
73152;SDS011;61363;50.882;5.988;2024-01-07T03:53:25;7.30;;;4.10;;
73152;SDS011;61363;50.882;5.988;2024-01-07T03:55:51;7.10;;;3.93;;
73152;SDS011;61363;50.882;5.988;2024-01-07T03:58:16;8.30;;;4.67;;
73152;SDS011;61363;50.882;5.988;2024-01-07T04:00:42;7.23;;;4.00;;
73152;SDS011;61363;50.882;5.988;2024-01-07T04:03:07;7.33;;;4.30;;
73152;SDS011;61363;50.882;5.988;2024-01-07T04:05:32;8.03;;;4.07;;
73152;SDS011;61363;50.882;5.988;2024-01-07T04:07:59;6.87;;;3.87;;
73152;SDS011;61363;50.882;5.988;2024-01-07T04:10:28;7.28;;;3.80;;
73152;SDS011;61363;50.882;5.988;2024-01-07T04:12:53;6.57;;;3.73;;
73152;SDS011;61363;50.882;5.988;2024-01-07T04:15:18;7.20;;;3.90;;
73152;SDS011;61363;50.882;5.988;2024-01-07T04:17:44;7.43;;;3.67;;
73152;SDS011;61363;50.882;5.988;2024-01-07T04:20:12;6.72;;;3.72;;
73152;SDS011;61363;50.882;5.988;2024-01-07T04:22:38;6.50;;;3.60;;
73152;SDS011;61363;50.882;5.988;2024-01-07T04:25:03;6.63;;;3.80;;
73152;SDS011;61363;50.882;5.988;2024-01-07T04:27:33;7.55;;;3.90;;
73152;SDS011;61363;50.882;5.988;2024-01-07T04:29:58;7.20;;;3.90;;
73152;SDS011;61363;50.882;5.988;2024-01-07T04:32:23;6.40;;;3.60;;
73152;SDS011;61363;50.882;5.988;2024-01-07T04:34:49;7.43;;;4.00;;
73152;SDS011;61363;50.882;5.988;2024-01-07T04:37:14;7.50;;;3.73;;
73152;SDS011;61363;50.882;5.988;2024-01-07T04:39:41;8.35;;;4.20;;
73152;SDS011;61363;50.882;5.988;2024-01-07T04:42:06;6.60;;;3.57;;
73152;SDS011;61363;50.882;5.988;2024-01-07T04:44:31;7.33;;;4.17;;
73152;SDS011;61363;50.882;5.988;2024-01-07T04:46:57;7.20;;;4.00;;
73152;SDS011;61363;50.882;5.988;2024-01-07T04:49:22;6.70;;;3.60;;
73152;SDS011;61363;50.882;5.988;2024-01-07T04:51:47;7.10;;;4.00;;
73152;SDS011;61363;50.882;5.988;2024-01-07T04:54:13;7.10;;;3.97;;
73152;SDS011;61363;50.882;5.988;2024-01-07T04:56:38;7.20;;;3.73;;
73152;SDS011;61363;50.882;5.988;2024-01-07T04:59:04;7.60;;;3.90;;
73152;SDS011;61363;50.882;5.988;2024-01-07T05:01:29;7.47;;;4.00;;
73152;SDS011;61363;50.882;5.988;2024-01-07T05:03:54;7.10;;;3.58;;
73152;SDS011;61363;50.882;5.988;2024-01-07T05:06:20;7.40;;;3.60;;
73152;SDS011;61363;50.882;5.988;2024-01-07T05:08:45;7.50;;;4.20;;
73152;SDS011;61363;50.882;5.988;2024-01-07T05:11:11;7.67;;;4.10;;
73152;SDS011;61363;50.882;5.988;2024-01-07T05:13:36;7.22;;;3.97;;
73152;SDS011;61363;50.882;5.988;2024-01-07T05:16:02;6.93;;;4.00;;
73152;SDS011;61363;50.882;5.988;2024-01-07T05:18:27;7.30;;;3.80;;
73152;SDS011;61363;50.882;5.988;2024-01-07T05:20:53;8.02;;;4.20;;
73152;SDS011;61363;50.882;5.988;2024-01-07T05:23:18;7.73;;;4.17;;
73152;SDS011;61363;50.882;5.988;2024-01-07T05:25:44;8.37;;;4.60;;
73152;SDS011;61363;50.882;5.988;2024-01-07T05:28:13;7.60;;;4.13;;
73152;SDS011;61363;50.882;5.988;2024-01-07T05:30:39;7.53;;;4.43;;
73152;SDS011;61363;50.882;5.988;2024-01-07T05:33:05;7.67;;;4.30;;
73152;SDS011;61363;50.882;5.988;2024-01-07T05:35:30;8.40;;;4.40;;
73152;SDS011;61363;50.882;5.988;2024-01-07T05:37:56;7.45;;;4.35;;
73152;SDS011;61363;50.882;5.988;2024-01-07T05:40:22;8.77;;;4.40;;
73152;SDS011;61363;50.882;5.988;2024-01-07T05:42:47;8.07;;;4.30;;
73152;SDS011;61363;50.882;5.988;2024-01-07T05:45:13;7.90;;;4.67;;
73152;SDS011;61363;50.882;5.988;2024-01-07T05:47:38;8.20;;;4.50;;
73152;SDS011;61363;50.882;5.988;2024-01-07T05:50:05;8.32;;;4.45;;
73152;SDS011;61363;50.882;5.988;2024-01-07T05:52:31;8.27;;;4.38;;
73152;SDS011;61363;50.882;5.988;2024-01-07T05:54:56;8.70;;;4.77;;
73152;SDS011;61363;50.882;5.988;2024-01-07T05:57:22;7.20;;;4.30;;
73152;SDS011;61363;50.882;5.988;2024-01-07T05:59:47;7.90;;;4.50;;
73152;SDS011;61363;50.882;5.988;2024-01-07T06:02:13;8.20;;;4.50;;
73152;SDS011;61363;50.882;5.988;2024-01-07T06:04:38;8.63;;;4.60;;
73152;SDS011;61363;50.882;5.988;2024-01-07T06:07:04;8.30;;;4.77;;
73152;SDS011;61363;50.882;5.988;2024-01-07T06:09:29;8.88;;;4.93;;
73152;SDS011;61363;50.882;5.988;2024-01-07T06:11:55;8.70;;;4.90;;
73152;SDS011;61363;50.882;5.988;2024-01-07T06:14:20;8.50;;;5.10;;
73152;SDS011;61363;50.882;5.988;2024-01-07T06:16:46;8.95;;;4.90;;
73152;SDS011;61363;50.882;5.988;2024-01-07T06:19:12;8.00;;;4.83;;
73152;SDS011;61363;50.882;5.988;2024-01-07T06:21:37;8.73;;;4.83;;
73152;SDS011;61363;50.882;5.988;2024-01-07T06:24:02;8.73;;;4.70;;
73152;SDS011;61363;50.882;5.988;2024-01-07T06:26:28;9.43;;;5.00;;
73152;SDS011;61363;50.882;5.988;2024-01-07T06:28:53;8.90;;;5.15;;
73152;SDS011;61363;50.882;5.988;2024-01-07T06:31:18;8.33;;;4.77;;
73152;SDS011;61363;50.882;5.988;2024-01-07T06:33:44;9.17;;;4.97;;
73152;SDS011;61363;50.882;5.988;2024-01-07T06:36:09;9.53;;;5.40;;
73152;SDS011;61363;50.882;5.988;2024-01-07T06:38:35;9.17;;;5.30;;
73152;SDS011;61363;50.882;5.988;2024-01-07T06:41:00;9.00;;;5.10;;
73152;SDS011;61363;50.882;5.988;2024-01-07T06:43:28;9.32;;;5.32;;
73152;SDS011;61363;50.882;5.988;2024-01-07T06:45:54;9.30;;;5.17;;
73152;SDS011;61363;50.882;5.988;2024-01-07T06:48:19;9.02;;;4.90;;
73152;SDS011;61363;50.882;5.988;2024-01-07T06:50:45;9.60;;;4.87;;
73152;SDS011;61363;50.882;5.988;2024-01-07T06:53:10;8.73;;;4.83;;
73152;SDS011;61363;50.882;5.988;2024-01-07T06:55:35;9.20;;;5.43;;
73152;SDS011;61363;50.882;5.988;2024-01-07T06:58:01;7.82;;;4.72;;
73152;SDS011;61363;50.882;5.988;2024-01-07T07:00:27;9.10;;;5.07;;
73152;SDS011;61363;50.882;5.988;2024-01-07T07:02:52;8.90;;;5.13;;
73152;SDS011;61363;50.882;5.988;2024-01-07T07:05:18;9.07;;;5.23;;
73152;SDS011;61363;50.882;5.988;2024-01-07T07:07:43;9.20;;;4.87;;
73152;SDS011;61363;50.882;5.988;2024-01-07T07:10:08;10.23;;;5.33;;
73152;SDS011;61363;50.882;5.988;2024-01-07T07:12:34;8.40;;;4.85;;
73152;SDS011;61363;50.882;5.988;2024-01-07T07:14:59;9.07;;;4.87;;
73152;SDS011;61363;50.882;5.988;2024-01-07T07:17:24;9.13;;;4.80;;
73152;SDS011;61363;50.882;5.988;2024-01-07T07:19:50;10.33;;;5.40;;
73152;SDS011;61363;50.882;5.988;2024-01-07T07:22:15;9.83;;;5.37;;
73152;SDS011;61363;50.882;5.988;2024-01-07T07:24:41;8.33;;;4.70;;
73152;SDS011;61363;50.882;5.988;2024-01-07T07:27:06;9.30;;;5.30;;
73152;SDS011;61363;50.882;5.988;2024-01-07T07:29:32;9.97;;;5.87;;
73152;SDS011;61363;50.882;5.988;2024-01-07T07:31:57;9.00;;;5.30;;
73152;SDS011;61363;50.882;5.988;2024-01-07T07:34:23;9.93;;;5.33;;
73152;SDS011;61363;50.882;5.988;2024-01-07T07:36:48;8.53;;;5.07;;
73152;SDS011;61363;50.882;5.988;2024-01-07T07:39:13;8.87;;;5.23;;
73152;SDS011;61363;50.882;5.988;2024-01-07T07:41:39;10.20;;;5.28;;
73152;SDS011;61363;50.882;5.988;2024-01-07T07:44:05;9.77;;;5.40;;
73152;SDS011;61363;50.882;5.988;2024-01-07T07:46:30;9.73;;;5.73;;
73152;SDS011;61363;50.882;5.988;2024-01-07T07:48:56;9.25;;;5.38;;
73152;SDS011;61363;50.882;5.988;2024-01-07T07:51:21;9.80;;;5.73;;
73152;SDS011;61363;50.882;5.988;2024-01-07T07:53:46;9.73;;;5.57;;
73152;SDS011;61363;50.882;5.988;2024-01-07T07:56:12;10.03;;;5.77;;
73152;SDS011;61363;50.882;5.988;2024-01-07T07:58:37;10.07;;;5.93;;
73152;SDS011;61363;50.882;5.988;2024-01-07T08:01:03;9.05;;;5.43;;
73152;SDS011;61363;50.882;5.988;2024-01-07T08:03:29;10.27;;;5.90;;
73152;SDS011;61363;50.882;5.988;2024-01-07T08:05:55;10.53;;;6.00;;
73152;SDS011;61363;50.882;5.988;2024-01-07T08:08:21;10.10;;;6.15;;
73152;SDS011;61363;50.882;5.988;2024-01-07T08:10:46;9.90;;;6.10;;
73152;SDS011;61363;50.882;5.988;2024-01-07T08:13:11;9.97;;;5.60;;
73152;SDS011;61363;50.882;5.988;2024-01-07T08:15:37;11.00;;;6.60;;
73152;SDS011;61363;50.882;5.988;2024-01-07T08:18:03;9.73;;;5.70;;
73152;SDS011;61363;50.882;5.988;2024-01-07T08:20:29;9.70;;;5.75;;
73152;SDS011;61363;50.882;5.988;2024-01-07T08:22:54;8.90;;;5.57;;
73152;SDS011;61363;50.882;5.988;2024-01-07T08:25:19;9.95;;;5.70;;
73152;SDS011;61363;50.882;5.988;2024-01-07T08:27:45;9.33;;;5.50;;
73152;SDS011;61363;50.882;5.988;2024-01-07T08:30:10;9.97;;;5.53;;
73152;SDS011;61363;50.882;5.988;2024-01-07T08:32:38;9.52;;;5.38;;
73152;SDS011;61363;50.882;5.988;2024-01-07T08:35:04;9.30;;;5.40;;
73152;SDS011;61363;50.882;5.988;2024-01-07T08:37:30;9.57;;;5.73;;
73152;SDS011;61363;50.882;5.988;2024-01-07T08:39:55;9.77;;;5.87;;
73152;SDS011;61363;50.882;5.988;2024-01-07T08:42:20;10.43;;;5.83;;
73152;SDS011;61363;50.882;5.988;2024-01-07T08:44:46;9.52;;;5.63;;
73152;SDS011;61363;50.882;5.988;2024-01-07T08:47:12;9.10;;;5.63;;
73152;SDS011;61363;50.882;5.988;2024-01-07T08:49:38;10.00;;;5.83;;
73152;SDS011;61363;50.882;5.988;2024-01-07T08:52:03;9.67;;;5.47;;
73152;SDS011;61363;50.882;5.988;2024-01-07T08:54:29;10.27;;;5.93;;
73152;SDS011;61363;50.882;5.988;2024-01-07T08:56:54;9.20;;;5.70;;
73152;SDS011;61363;50.882;5.988;2024-01-07T08:59:20;10.83;;;6.03;;
73152;SDS011;61363;50.882;5.988;2024-01-07T09:01:45;9.80;;;6.00;;
73152;SDS011;61363;50.882;5.988;2024-01-07T09:04:10;9.52;;;5.68;;
73152;SDS011;61363;50.882;5.988;2024-01-07T09:06:36;9.57;;;6.00;;
73152;SDS011;61363;50.882;5.988;2024-01-07T09:09:01;9.63;;;5.83;;
73152;SDS011;61363;50.882;5.988;2024-01-07T09:11:30;9.80;;;5.90;;
73152;SDS011;61363;50.882;5.988;2024-01-07T09:15:36;10.27;;;6.13;;
73152;SDS011;61363;50.882;5.988;2024-01-07T09:18:02;10.37;;;5.87;;
73152;SDS011;61363;50.882;5.988;2024-01-07T09:20:28;10.40;;;6.38;;
73152;SDS011;61363;50.882;5.988;2024-01-07T09:22:53;10.30;;;6.00;;
73152;SDS011;61363;50.882;5.988;2024-01-07T09:25:18;10.17;;;6.10;;
73152;SDS011;61363;50.882;5.988;2024-01-07T09:27:44;10.20;;;6.30;;
73152;SDS011;61363;50.882;5.988;2024-01-07T09:30:09;9.77;;;6.07;;
73152;SDS011;61363;50.882;5.988;2024-01-07T09:32:36;9.48;;;5.72;;
73152;SDS011;61363;50.882;5.988;2024-01-07T09:35:02;9.77;;;6.07;;
73152;SDS011;61363;50.882;5.988;2024-01-07T09:37:27;10.35;;;6.32;;
73152;SDS011;61363;50.882;5.988;2024-01-07T09:39:53;9.77;;;5.90;;
73152;SDS011;61363;50.882;5.988;2024-01-07T09:42:19;10.18;;;6.20;;
73152;SDS011;61363;50.882;5.988;2024-01-07T09:44:44;9.73;;;5.90;;
73152;SDS011;61363;50.882;5.988;2024-01-07T09:47:11;9.75;;;6.00;;
73152;SDS011;61363;50.882;5.988;2024-01-07T09:49:37;9.88;;;6.18;;
73152;SDS011;61363;50.882;5.988;2024-01-07T09:52:03;9.93;;;6.10;;
73152;SDS011;61363;50.882;5.988;2024-01-07T09:54:29;9.18;;;5.90;;
73152;SDS011;61363;50.882;5.988;2024-01-07T09:57:01;9.52;;;5.85;;
73152;SDS011;61363;50.882;5.988;2024-01-07T09:59:28;9.73;;;6.00;;
73152;SDS011;61363;50.882;5.988;2024-01-07T10:01:53;10.20;;;5.82;;
73152;SDS011;61363;50.882;5.988;2024-01-07T10:04:19;9.50;;;5.67;;
73152;SDS011;61363;50.882;5.988;2024-01-07T10:06:45;9.70;;;5.70;;
73152;SDS011;61363;50.882;5.988;2024-01-07T10:09:11;10.40;;;5.97;;
73152;SDS011;61363;50.882;5.988;2024-01-07T10:11:37;9.07;;;5.63;;
73152;SDS011;61363;50.882;5.988;2024-01-07T10:14:02;9.68;;;5.88;;
73152;SDS011;61363;50.882;5.988;2024-01-07T10:16:28;9.67;;;5.83;;
73152;SDS011;61363;50.882;5.988;2024-01-07T10:18:53;9.10;;;5.63;;
73152;SDS011;61363;50.882;5.988;2024-01-07T10:21:18;9.40;;;5.73;;
73152;SDS011;61363;50.882;5.988;2024-01-07T10:23:43;9.40;;;5.30;;
73152;SDS011;61363;50.882;5.988;2024-01-07T10:26:09;9.90;;;5.60;;
73152;SDS011;61363;50.882;5.988;2024-01-07T10:28:34;9.33;;;5.40;;
73152;SDS011;61363;50.882;5.988;2024-01-07T10:31:00;9.10;;;5.38;;
73152;SDS011;61363;50.882;5.988;2024-01-07T10:33:25;9.37;;;5.80;;
73152;SDS011;61363;50.882;5.988;2024-01-07T10:35:56;8.77;;;5.18;;
73152;SDS011;61363;50.882;5.988;2024-01-07T10:38:25;9.40;;;5.30;;
73152;SDS011;61363;50.882;5.988;2024-01-07T10:40:50;8.57;;;5.30;;
73152;SDS011;61363;50.882;5.988;2024-01-07T10:43:17;9.85;;;5.93;;
73152;SDS011;61363;50.882;5.988;2024-01-07T10:45:44;8.90;;;5.37;;
73152;SDS011;61363;50.882;5.988;2024-01-07T10:48:13;8.85;;;5.10;;
73152;SDS011;61363;50.882;5.988;2024-01-07T10:50:42;9.25;;;5.40;;
73152;SDS011;61363;50.882;5.988;2024-01-07T10:53:09;9.63;;;5.50;;
73152;SDS011;61363;50.882;5.988;2024-01-07T10:55:39;8.50;;;5.20;;
73152;SDS011;61363;50.882;5.988;2024-01-07T10:58:07;8.52;;;5.15;;
73152;SDS011;61363;50.882;5.988;2024-01-07T11:00:32;8.90;;;5.20;;
73152;SDS011;61363;50.882;5.988;2024-01-07T11:06:15;8.98;;;4.88;;
73152;SDS011;61363;50.882;5.988;2024-01-07T11:11:40;8.70;;;5.30;;
73152;SDS011;61363;50.882;5.988;2024-01-07T11:14:12;8.10;;;4.80;;
73152;SDS011;61363;50.882;5.988;2024-01-07T11:16:58;7.90;;;4.63;;
73152;SDS011;61363;50.882;5.988;2024-01-07T11:19:24;7.90;;;4.43;;
73152;SDS011;61363;50.882;5.988;2024-01-07T11:21:49;8.05;;;4.90;;
73152;SDS011;61363;50.882;5.988;2024-01-07T11:27:08;7.35;;;4.55;;
73152;SDS011;61363;50.882;5.988;2024-01-07T11:29:35;8.23;;;4.55;;
73152;SDS011;61363;50.882;5.988;2024-01-07T11:32:00;8.35;;;4.65;;
73152;SDS011;61363;50.882;5.988;2024-01-07T11:34:38;8.37;;;4.87;;
73152;SDS011;61363;50.882;5.988;2024-01-07T11:37:11;9.10;;;4.90;;
73152;SDS011;61363;50.882;5.988;2024-01-07T11:39:47;8.27;;;4.50;;
73152;SDS011;61363;50.882;5.988;2024-01-07T11:42:14;7.25;;;4.40;;
73152;SDS011;61363;50.882;5.988;2024-01-07T11:44:53;7.80;;;4.70;;
73152;SDS011;61363;50.882;5.988;2024-01-07T11:47:20;7.40;;;4.30;;
73152;SDS011;61363;50.882;5.988;2024-01-07T11:49:46;7.60;;;4.25;;
73152;SDS011;61363;50.882;5.988;2024-01-07T11:52:12;7.90;;;4.70;;
73152;SDS011;61363;50.882;5.988;2024-01-07T11:54:38;8.77;;;4.97;;
73152;SDS011;61363;50.882;5.988;2024-01-07T11:57:07;6.70;;;4.20;;
73152;SDS011;61363;50.882;5.988;2024-01-07T11:59:33;7.65;;;4.15;;
73152;SDS011;61363;50.882;5.988;2024-01-07T12:02:02;7.70;;;4.40;;
73152;SDS011;61363;50.882;5.988;2024-01-07T12:04:29;7.85;;;4.35;;
73152;SDS011;61363;50.882;5.988;2024-01-07T12:06:55;8.93;;;4.70;;
73152;SDS011;61363;50.882;5.988;2024-01-07T12:09:21;7.50;;;4.22;;
73152;SDS011;61363;50.882;5.988;2024-01-07T12:11:46;7.37;;;4.20;;
73152;SDS011;61363;50.882;5.988;2024-01-07T12:14:12;7.93;;;4.60;;
73152;SDS011;61363;50.882;5.988;2024-01-07T12:16:37;7.13;;;4.47;;
73152;SDS011;61363;50.882;5.988;2024-01-07T12:19:03;7.10;;;4.10;;
73152;SDS011;61363;50.882;5.988;2024-01-07T12:21:28;7.50;;;4.23;;
73152;SDS011;61363;50.882;5.988;2024-01-07T12:23:54;7.97;;;4.35;;
73152;SDS011;61363;50.882;5.988;2024-01-07T12:26:25;7.50;;;4.50;;
73152;SDS011;61363;50.882;5.988;2024-01-07T12:28:57;8.02;;;4.38;;
73152;SDS011;61363;50.882;5.988;2024-01-07T12:31:28;7.83;;;4.40;;
73152;SDS011;61363;50.882;5.988;2024-01-07T12:33:54;7.38;;;4.35;;
73152;SDS011;61363;50.882;5.988;2024-01-07T12:36:21;8.48;;;4.60;;
73152;SDS011;61363;50.882;5.988;2024-01-07T12:38:47;7.38;;;4.10;;
73152;SDS011;61363;50.882;5.988;2024-01-07T12:41:13;7.83;;;4.57;;
73152;SDS011;61363;50.882;5.988;2024-01-07T12:43:38;7.53;;;4.40;;
73152;SDS011;61363;50.882;5.988;2024-01-07T12:46:03;7.90;;;4.67;;
73152;SDS011;61363;50.882;5.988;2024-01-07T12:48:30;7.70;;;4.43;;
73152;SDS011;61363;50.882;5.988;2024-01-07T12:50:56;7.85;;;4.63;;
73152;SDS011;61363;50.882;5.988;2024-01-07T12:53:22;7.38;;;4.25;;
73152;SDS011;61363;50.882;5.988;2024-01-07T12:55:47;8.23;;;4.60;;
73152;SDS011;61363;50.882;5.988;2024-01-07T12:58:13;7.93;;;4.30;;
73152;SDS011;61363;50.882;5.988;2024-01-07T13:00:38;7.53;;;4.10;;
73152;SDS011;61363;50.882;5.988;2024-01-07T13:03:05;7.25;;;4.05;;
73152;SDS011;61363;50.882;5.988;2024-01-07T13:05:32;7.40;;;4.32;;
73152;SDS011;61363;50.882;5.988;2024-01-07T13:07:58;8.10;;;4.40;;
73152;SDS011;61363;50.882;5.988;2024-01-07T13:10:23;7.27;;;3.97;;
73152;SDS011;61363;50.882;5.988;2024-01-07T13:12:49;7.57;;;4.27;;
73152;SDS011;61363;50.882;5.988;2024-01-07T13:15:15;7.80;;;4.30;;
73152;SDS011;61363;50.882;5.988;2024-01-07T13:17:40;6.77;;;3.90;;
73152;SDS011;61363;50.882;5.988;2024-01-07T13:20:06;7.50;;;4.30;;
73152;SDS011;61363;50.882;5.988;2024-01-07T13:22:32;7.28;;;4.20;;
73152;SDS011;61363;50.882;5.988;2024-01-07T13:24:58;6.97;;;4.40;;
73152;SDS011;61363;50.882;5.988;2024-01-07T13:27:23;7.03;;;4.03;;
73152;SDS011;61363;50.882;5.988;2024-01-07T13:29:49;7.43;;;4.57;;
73152;SDS011;61363;50.882;5.988;2024-01-07T13:32:15;7.53;;;4.47;;
73152;SDS011;61363;50.882;5.988;2024-01-07T13:34:42;7.07;;;4.25;;
73152;SDS011;61363;50.882;5.988;2024-01-07T13:37:08;8.50;;;4.50;;
73152;SDS011;61363;50.882;5.988;2024-01-07T13:39:33;6.83;;;4.00;;
73152;SDS011;61363;50.882;5.988;2024-01-07T13:41:58;6.60;;;3.90;;
73152;SDS011;61363;50.882;5.988;2024-01-07T13:44:24;7.38;;;4.10;;
73152;SDS011;61363;50.882;5.988;2024-01-07T13:46:49;7.00;;;4.10;;
73152;SDS011;61363;50.882;5.988;2024-01-07T13:49:17;7.05;;;4.10;;
73152;SDS011;61363;50.882;5.988;2024-01-07T13:51:43;6.83;;;3.97;;
73152;SDS011;61363;50.882;5.988;2024-01-07T13:54:09;6.95;;;3.75;;
73152;SDS011;61363;50.882;5.988;2024-01-07T13:56:39;8.50;;;4.65;;
73152;SDS011;61363;50.882;5.988;2024-01-07T13:59:07;7.63;;;4.20;;
73152;SDS011;61363;50.882;5.988;2024-01-07T14:01:33;7.17;;;3.80;;
73152;SDS011;61363;50.882;5.988;2024-01-07T14:03:59;6.05;;;3.75;;
73152;SDS011;61363;50.882;5.988;2024-01-07T14:06:24;6.60;;;3.60;;
73152;SDS011;61363;50.882;5.988;2024-01-07T14:08:50;6.70;;;4.20;;
73152;SDS011;61363;50.882;5.988;2024-01-07T14:11:16;7.32;;;3.90;;
73152;SDS011;61363;50.882;5.988;2024-01-07T14:13:43;6.50;;;3.72;;
73152;SDS011;61363;50.882;5.988;2024-01-07T14:16:10;6.85;;;3.63;;
73152;SDS011;61363;50.882;5.988;2024-01-07T14:18:35;6.50;;;3.80;;
73152;SDS011;61363;50.882;5.988;2024-01-07T14:21:01;7.47;;;4.13;;
73152;SDS011;61363;50.882;5.988;2024-01-07T14:23:26;6.43;;;3.60;;
73152;SDS011;61363;50.882;5.988;2024-01-07T14:25:52;6.60;;;3.60;;
73152;SDS011;61363;50.882;5.988;2024-01-07T14:28:17;7.07;;;3.87;;
73152;SDS011;61363;50.882;5.988;2024-01-07T14:30:43;7.03;;;3.93;;
73152;SDS011;61363;50.882;5.988;2024-01-07T14:33:08;6.63;;;3.73;;
73152;SDS011;61363;50.882;5.988;2024-01-07T14:35:33;7.45;;;3.92;;
73152;SDS011;61363;50.882;5.988;2024-01-07T14:37:59;6.83;;;3.90;;
73152;SDS011;61363;50.882;5.988;2024-01-07T14:40:25;6.65;;;3.53;;
73152;SDS011;61363;50.882;5.988;2024-01-07T14:42:50;6.63;;;3.80;;
73152;SDS011;61363;50.882;5.988;2024-01-07T14:45:19;7.28;;;3.80;;
73152;SDS011;61363;50.882;5.988;2024-01-07T14:47:45;5.80;;;3.40;;
73152;SDS011;61363;50.882;5.988;2024-01-07T14:50:10;7.20;;;4.00;;